createdAt,value
2023-04-16T00:02:18.554Z,1.23
2023-04-16T00:04:45.936Z,3.03
2023-04-16T00:07:13.413Z,3.90
2023-04-16T00:09:41.017Z,3.28
2023-04-16T00:12:09.176Z,4.50
2023-04-16T00:14:36.525Z,4.03
2023-04-16T00:17:04.193Z,3.60
2023-04-16T00:19:31.595Z,1.63
2023-04-16T00:21:59.165Z,1.37
2023-04-16T00:24:26.672Z,0.70
2023-04-16T00:26:54.772Z,1.13
2023-04-16T00:29:22.256Z,0.80
2023-04-16T00:31:49.644Z,1.23
2023-04-16T00:34:17.438Z,2.50
2023-04-16T00:36:44.690Z,3.03
2023-04-16T00:39:12.057Z,3.43
2023-04-16T00:41:39.479Z,4.33
2023-04-16T00:44:06.927Z,3.23
2023-04-16T00:46:35.325Z,2.90
2023-04-16T00:49:03.539Z,1.67
2023-04-16T00:51:31.748Z,1.47
2023-04-16T00:53:59.199Z,1.40
2023-04-16T00:56:27.440Z,1.10
2023-04-16T00:58:56.610Z,0.80
2023-04-16T01:01:24.010Z,1.03
2023-04-16T01:03:51.802Z,0.80
2023-04-16T01:06:19.739Z,1.47
2023-04-16T01:08:48.392Z,2.80
2023-04-16T01:11:16.658Z,3.23
2023-04-16T01:13:43.889Z,2.73
2023-04-16T01:16:12.526Z,3.73
2023-04-16T01:18:40.252Z,3.47
2023-04-16T01:21:08.240Z,4.13
2023-04-16T01:23:35.773Z,1.90
2023-04-16T01:26:03.159Z,2.43
2023-04-16T01:28:30.681Z,1.47
2023-04-16T01:30:58.091Z,0.80
2023-04-16T01:33:26.435Z,0.90
2023-04-16T01:35:53.663Z,0.80
2023-04-16T01:38:20.999Z,1.00
2023-04-16T01:40:48.372Z,1.33
2023-04-16T01:43:16.181Z,2.93
2023-04-16T01:45:43.509Z,3.30
2023-04-16T01:48:10.897Z,3.83
2023-04-16T01:50:38.336Z,3.83
2023-04-16T01:53:05.845Z,2.13
2023-04-16T01:55:34.598Z,3.27
2023-04-16T01:58:02.285Z,2.37
2023-04-16T02:00:29.614Z,0.87
2023-04-16T02:02:57.761Z,1.60
2023-04-16T02:05:25.247Z,0.80
2023-04-16T02:07:52.709Z,0.80
2023-04-16T02:10:20.162Z,0.90
2023-04-16T02:12:47.858Z,1.87
2023-04-16T02:15:16.733Z,2.97
2023-04-16T02:17:44.067Z,3.27
2023-04-16T02:20:12.053Z,3.73
2023-04-16T02:22:39.573Z,3.93
2023-04-16T02:25:07.082Z,3.30
2023-04-16T02:27:34.470Z,2.57
2023-04-16T02:30:01.824Z,1.17
2023-04-16T02:32:29.329Z,0.90
2023-04-16T02:34:59.390Z,0.60
2023-04-16T02:37:27.203Z,3.63
2023-04-16T02:39:54.528Z,0.70
2023-04-16T02:42:21.846Z,0.87
2023-04-16T02:44:49.206Z,1.70
2023-04-16T02:47:16.622Z,2.97
2023-04-16T02:49:43.987Z,2.97
2023-04-16T02:52:12.462Z,3.33
2023-04-16T02:54:40.713Z,3.23
2023-04-16T02:57:08.009Z,5.13
2023-04-16T02:59:35.295Z,2.07
2023-04-16T03:02:02.580Z,1.97
2023-04-16T03:04:30.257Z,1.17
2023-04-16T03:06:57.757Z,0.90
2023-04-16T03:09:25.166Z,0.80
2023-04-16T03:11:52.647Z,0.80
2023-04-16T03:14:20.001Z,3.50
2023-04-16T03:16:47.245Z,2.37
2023-04-16T03:19:14.840Z,3.80
2023-04-16T03:21:42.159Z,3.67
2023-04-16T03:24:09.582Z,4.23
2023-04-16T03:26:36.824Z,5.40
2023-04-16T03:29:04.149Z,2.80
2023-04-16T03:31:31.830Z,1.40
2023-04-16T03:33:59.419Z,0.80
2023-04-16T03:36:28.601Z,0.93
2023-04-16T03:38:55.984Z,1.00
2023-04-16T03:41:23.381Z,0.90
2023-04-16T03:43:50.776Z,0.80
2023-04-16T03:46:18.260Z,1.70
2023-04-16T03:48:45.799Z,3.07
2023-04-16T03:51:13.157Z,3.30
2023-04-16T03:53:40.418Z,3.63
2023-04-16T03:56:07.938Z,3.00
2023-04-16T03:58:35.163Z,2.07
2023-04-16T04:01:02.688Z,1.30
2023-04-16T04:03:30.239Z,2.13
2023-04-16T04:05:58.511Z,0.93
2023-04-16T04:08:26.766Z,0.90
2023-04-16T04:10:54.103Z,1.00
2023-04-16T04:13:21.430Z,0.87
2023-04-16T04:15:48.772Z,1.17
2023-04-16T04:18:16.462Z,3.77
2023-04-16T04:20:45.683Z,3.77
2023-04-16T04:23:16.226Z,3.53
2023-04-16T04:25:43.527Z,4.23
2023-04-16T04:28:11.127Z,3.60
2023-04-16T04:30:38.676Z,4.10
2023-04-16T04:33:06.197Z,3.00
2023-04-16T04:35:33.954Z,2.60
2023-04-16T04:38:03.327Z,1.75
2023-04-16T04:40:30.738Z,1.57
2023-04-16T04:42:58.590Z,0.90
2023-04-16T04:45:28.459Z,1.00
2023-04-16T04:47:57.067Z,0.70
2023-04-16T04:50:24.487Z,0.70
2023-04-16T04:52:51.737Z,2.20
2023-04-16T04:55:19.276Z,1.43
2023-04-16T04:57:46.766Z,2.88
2023-04-16T05:00:14.134Z,3.95
2023-04-16T05:02:41.827Z,6.50
2023-04-16T05:05:09.555Z,3.43
2023-04-16T05:07:37.609Z,4.88
2023-04-16T05:10:05.347Z,2.47
2023-04-16T05:12:32.685Z,1.77
2023-04-16T05:15:00.112Z,0.87
2023-04-16T05:17:28.522Z,1.07
2023-04-16T05:19:57.090Z,0.87
2023-04-16T05:22:24.592Z,0.90
2023-04-16T05:24:51.833Z,0.77
2023-04-16T05:27:19.125Z,1.47
2023-04-16T05:29:46.316Z,2.90
2023-04-16T05:32:13.724Z,4.20
2023-04-16T05:34:40.988Z,3.53
2023-04-16T05:37:08.207Z,5.13
2023-04-16T05:39:35.678Z,2.60
2023-04-16T05:42:02.909Z,1.67
2023-04-16T05:44:30.288Z,1.10
2023-04-16T05:46:57.778Z,0.90
2023-04-16T05:49:25.089Z,0.70
2023-04-16T05:51:52.431Z,0.80
2023-04-16T05:54:19.780Z,1.77
2023-04-16T05:56:47.121Z,2.37
2023-04-16T05:59:14.364Z,3.60
2023-04-16T06:01:41.848Z,3.40
2023-04-16T06:04:09.475Z,3.77
2023-04-16T06:06:37.810Z,3.90
2023-04-16T06:09:05.172Z,3.00
2023-04-16T06:11:33.253Z,1.60
2023-04-16T06:14:01.889Z,1.77
2023-04-16T06:16:29.743Z,1.03
2023-04-16T06:18:57.479Z,0.70
2023-04-16T06:21:24.835Z,1.10
2023-04-16T06:23:52.630Z,0.70
2023-04-16T06:26:20.120Z,1.20
2023-04-16T06:28:47.452Z,4.40
2023-04-16T06:31:14.741Z,3.40
2023-04-16T06:33:42.040Z,3.37
2023-04-16T06:36:09.396Z,4.20
2023-04-16T06:38:38.168Z,3.37
2023-04-16T06:41:05.582Z,2.60
2023-04-16T06:43:34.057Z,1.27
2023-04-16T06:46:01.413Z,1.20
2023-04-16T06:48:29.080Z,0.80
2023-04-16T06:50:57.756Z,0.97
2023-04-16T06:53:25.341Z,0.70
2023-04-16T06:55:52.701Z,0.73
2023-04-16T06:58:20.273Z,1.10
2023-04-16T07:00:47.764Z,2.30
2023-04-16T07:03:15.337Z,3.33
2023-04-16T07:05:42.610Z,3.80
2023-04-16T07:08:10.101Z,3.93
2023-04-16T07:10:37.561Z,4.33
2023-04-16T07:13:04.857Z,3.40
2023-04-16T07:15:32.081Z,1.33
2023-04-16T07:17:59.668Z,0.73
2023-04-16T07:20:27.367Z,0.87
2023-04-16T07:22:54.838Z,0.80
2023-04-16T07:25:22.247Z,1.00
2023-04-16T07:27:49.878Z,1.20
2023-04-16T07:30:17.453Z,3.37
2023-04-16T07:32:44.825Z,3.20
2023-04-16T07:35:12.445Z,3.63
2023-04-16T07:37:39.965Z,4.67
2023-04-16T07:40:07.988Z,3.77
2023-04-16T07:42:35.881Z,3.23
2023-04-16T07:45:03.129Z,1.57
2023-04-16T07:47:30.828Z,1.00
2023-04-16T07:50:00.331Z,0.80
2023-04-16T07:52:27.858Z,0.93
2023-04-16T07:54:55.251Z,0.90
2023-04-16T07:57:22.536Z,1.20
2023-04-16T07:59:49.893Z,1.10
2023-04-16T08:02:17.429Z,3.40
2023-04-16T08:04:45.304Z,3.83
2023-04-16T08:07:12.809Z,5.17
2023-04-16T08:09:49.445Z,4.43
2023-04-16T08:12:17.702Z,3.83
2023-04-16T08:14:46.078Z,3.17
2023-04-16T08:17:15.050Z,3.33
2023-04-16T08:19:43.922Z,3.33
2023-04-16T08:22:15.088Z,2.97
2023-04-16T08:24:42.337Z,2.80
2023-04-16T08:27:18.536Z,5.10
2023-04-16T08:29:47.900Z,2.87
2023-04-16T08:32:15.660Z,3.40
2023-04-16T08:34:43.124Z,2.93
2023-04-16T08:37:10.621Z,3.80
2023-04-16T08:39:38.109Z,4.77
2023-04-16T08:42:06.804Z,3.17
2023-04-16T08:44:37.904Z,2.50
2023-04-16T08:47:07.248Z,2.40
2023-04-16T08:49:34.723Z,3.83
2023-04-16T08:52:03.630Z,2.50
2023-04-16T08:54:35.403Z,1.37
2023-04-16T08:57:06.946Z,1.77
2023-04-16T08:59:34.571Z,3.27
2023-04-16T09:02:02.794Z,1.20
2023-04-16T09:04:31.102Z,0.80
2023-04-16T09:06:59.674Z,0.90
2023-04-16T09:09:29.555Z,1.63
2023-04-16T09:11:58.047Z,0.80
2023-04-16T09:14:26.414Z,1.10
2023-04-16T09:16:57.946Z,0.90
2023-04-16T09:19:25.422Z,0.90
2023-04-16T09:21:52.782Z,1.63
2023-04-16T09:24:20.275Z,1.63
2023-04-16T09:26:47.822Z,2.50
2023-04-16T09:29:35.108Z,2.93
2023-04-16T09:32:07.678Z,1.60
2023-04-16T09:34:36.325Z,2.90
2023-04-16T09:37:18.958Z,1.80
2023-04-16T09:40:02.823Z,3.20
2023-04-16T09:42:35.496Z,1.00
2023-04-16T09:45:05.571Z,1.50
2023-04-16T09:47:44.397Z,1.23
2023-04-16T09:50:18.167Z,3.37
2023-04-16T09:52:48.947Z,5.40
2023-04-16T09:55:16.480Z,2.97
2023-04-16T09:57:43.769Z,3.07
2023-04-16T10:00:11.686Z,3.63
2023-04-16T10:02:42.792Z,5.67
2023-04-16T10:05:10.881Z,4.00
2023-04-16T10:07:38.562Z,3.27
2023-04-16T10:10:06.462Z,2.37
2023-04-16T10:12:33.799Z,1.97
2023-04-16T10:15:01.077Z,1.27
2023-04-16T10:17:30.658Z,1.10
2023-04-16T10:19:59.360Z,0.90
2023-04-16T10:22:28.882Z,1.13
2023-04-16T10:24:56.556Z,0.90
2023-04-16T10:27:24.037Z,1.00
2023-04-16T10:29:51.891Z,0.80
2023-04-16T10:32:21.274Z,1.97
2023-04-16T10:34:48.784Z,1.83
2023-04-16T10:37:18.442Z,3.27
2023-04-16T10:39:45.789Z,3.07
2023-04-16T10:42:13.905Z,3.70
2023-04-16T10:44:44.280Z,3.43
2023-04-16T10:47:15.712Z,3.17
2023-04-16T10:49:44.205Z,3.00
2023-04-16T10:52:17.588Z,3.13
2023-04-16T10:54:47.088Z,3.00
2023-04-16T10:57:18.648Z,3.10
2023-04-16T10:59:46.746Z,3.23
2023-04-16T11:02:18.623Z,2.90
2023-04-16T11:04:48.224Z,3.13
2023-04-16T11:07:22.756Z,3.07
2023-04-16T11:09:56.552Z,1.30
2023-04-16T11:12:38.137Z,0.70
2023-04-16T11:15:09.956Z,2.73
2023-04-16T11:17:45.358Z,2.97
2023-04-16T11:20:21.100Z,4.17
2023-04-16T11:22:52.514Z,2.33
2023-04-16T11:25:24.569Z,2.00
2023-04-16T11:27:52.972Z,0.70
2023-04-16T11:30:33.666Z,1.00
2023-04-16T11:33:11.555Z,0.90
2023-04-16T11:35:40.078Z,3.10
2023-04-16T11:38:07.795Z,3.07
2023-04-16T11:40:35.442Z,2.60
2023-04-16T11:43:04.509Z,0.97
2023-04-16T11:45:32.249Z,1.80
2023-04-16T11:48:00.298Z,0.80
2023-04-16T11:50:30.901Z,1.30
2023-04-16T11:53:05.811Z,0.70
2023-04-16T11:55:33.196Z,1.57
2023-04-16T11:58:12.745Z,0.70
2023-04-16T12:00:42.021Z,4.30
2023-04-16T12:03:10.270Z,3.13
2023-04-16T12:05:39.403Z,3.57
2023-04-16T12:08:07.752Z,2.03
2023-04-16T12:10:37.119Z,3.50
2023-04-16T12:13:17.756Z,2.00
2023-04-16T12:15:49.947Z,4.20
2023-04-16T12:18:18.579Z,2.30
2023-04-16T12:20:46.143Z,2.90
2023-04-16T12:23:31.352Z,2.90
2023-04-16T12:26:10.899Z,0.90
2023-04-16T12:28:39.632Z,4.20
2023-04-16T12:31:07.212Z,2.03
2023-04-16T12:33:34.501Z,2.50
2023-04-16T12:36:03.951Z,1.77
2023-04-16T12:38:31.312Z,1.80
2023-04-16T12:40:59.209Z,0.60
2023-04-16T12:43:26.795Z,1.13
2023-04-16T12:45:54.230Z,0.77
2023-04-16T12:48:21.663Z,0.80
2023-04-16T12:50:49.017Z,3.33
2023-04-16T12:53:16.393Z,2.60
2023-04-16T12:55:45.597Z,2.53
2023-04-16T12:58:13.063Z,2.30
2023-04-16T13:00:40.830Z,4.90
2023-04-16T13:03:08.439Z,3.80
2023-04-16T13:05:36.030Z,2.83
2023-04-16T13:08:03.704Z,1.13
2023-04-16T13:10:31.297Z,1.80
2023-04-16T13:12:58.814Z,0.80
2023-04-16T13:15:27.919Z,0.70
2023-04-16T13:17:55.463Z,0.70
2023-04-16T13:20:24.533Z,0.70
2023-04-16T13:22:52.044Z,0.77
2023-04-16T13:25:19.449Z,1.43
2023-04-16T13:27:46.849Z,2.43
2023-04-16T13:30:14.289Z,2.90
2023-04-16T13:32:41.971Z,2.83
2023-04-16T13:35:11.250Z,3.33
2023-04-16T13:37:38.792Z,3.17
2023-04-16T13:40:07.003Z,2.80
2023-04-16T13:42:34.219Z,2.17
2023-04-16T13:45:01.895Z,1.57
2023-04-16T13:47:29.961Z,1.30
2023-04-16T13:49:57.956Z,0.70
2023-04-16T13:52:25.186Z,0.70
2023-04-16T13:55:00.329Z,0.60
2023-04-16T13:57:29.487Z,2.03
2023-04-16T13:59:58.161Z,0.73
2023-04-16T14:02:28.870Z,0.73
2023-04-16T14:04:56.226Z,0.80
2023-04-16T14:07:27.477Z,0.80
2023-04-16T14:09:55.042Z,0.97
2023-04-16T14:12:22.323Z,1.10
2023-04-16T14:14:49.743Z,1.10
2023-04-16T14:17:17.113Z,2.90
2023-04-16T14:19:44.428Z,2.37
2023-04-16T14:22:11.725Z,2.70
2023-04-16T14:24:39.054Z,3.53
2023-04-16T14:27:06.427Z,1.93
2023-04-16T14:29:33.682Z,1.77
2023-04-16T14:32:01.604Z,1.27
2023-04-16T14:34:29.176Z,0.83
2023-04-16T14:36:57.421Z,0.87
2023-04-16T14:39:25.522Z,0.70
2023-04-16T14:41:52.775Z,0.90
2023-04-16T14:44:20.118Z,1.00
2023-04-16T14:46:47.296Z,2.00
2023-04-16T14:49:14.964Z,2.60
2023-04-16T14:51:43.317Z,2.80
2023-04-16T14:54:10.860Z,3.13
2023-04-16T14:56:38.522Z,3.30
2023-04-16T14:59:06.259Z,1.63
2023-04-16T15:01:34.971Z,1.90
2023-04-16T15:04:03.878Z,1.30
2023-04-16T15:06:32.540Z,1.20
2023-04-16T15:09:00.107Z,0.70
2023-04-16T15:11:28.909Z,0.70
2023-04-16T15:13:56.779Z,0.70
2023-04-16T15:16:24.338Z,0.80
2023-04-16T15:18:51.821Z,0.70
2023-04-16T15:21:19.191Z,1.47
2023-04-16T15:23:46.593Z,2.60
2023-04-16T15:26:13.910Z,3.13
2023-04-16T15:28:41.373Z,4.43
2023-04-16T15:31:08.693Z,2.73
2023-04-16T15:33:36.410Z,1.57
2023-04-16T15:36:04.238Z,1.00
2023-04-16T15:38:31.621Z,2.27
2023-04-16T15:41:01.240Z,0.87
2023-04-16T15:43:30.035Z,1.87
2023-04-16T15:45:57.743Z,0.60
2023-04-16T15:48:25.370Z,0.90
2023-04-16T15:50:53.286Z,0.80
2023-04-16T15:53:20.877Z,1.17
2023-04-16T15:55:50.698Z,2.23
2023-04-16T15:58:18.152Z,2.30
2023-04-16T16:00:49.945Z,2.80
2023-04-16T16:03:21.248Z,2.60
2023-04-16T16:05:48.812Z,2.00
2023-04-16T16:08:16.812Z,2.40
2023-04-16T16:10:44.331Z,2.63
2023-04-16T16:13:14.353Z,2.80
2023-04-16T16:15:41.853Z,3.70
2023-04-16T16:18:09.488Z,3.23
2023-04-16T16:20:37.534Z,1.60
2023-04-16T16:23:05.197Z,2.90
2023-04-16T16:25:32.475Z,1.10
2023-04-16T16:28:01.888Z,0.80
2023-04-16T16:30:30.937Z,2.20
2023-04-16T16:32:59.193Z,0.70
2023-04-16T16:35:26.629Z,1.20
2023-04-16T16:37:57.651Z,0.70
2023-04-16T16:40:25.374Z,2.10
2023-04-16T16:42:53.091Z,0.87
2023-04-16T16:45:20.925Z,1.20
2023-04-16T16:47:49.269Z,2.10
2023-04-16T16:50:16.922Z,2.73
2023-04-16T16:52:45.050Z,3.37
2023-04-16T16:55:12.462Z,3.57
2023-04-16T16:57:40.026Z,2.70
2023-04-16T17:00:15.211Z,1.80
2023-04-16T17:02:43.189Z,2.80
2023-04-16T17:05:11.328Z,3.17
2023-04-16T17:07:39.113Z,4.07
2023-04-16T17:10:07.744Z,3.23
2023-04-16T17:12:35.104Z,2.77
2023-04-16T17:15:03.294Z,0.97
2023-04-16T17:17:31.978Z,2.17
2023-04-16T17:20:01.266Z,0.70
2023-04-16T17:22:30.192Z,0.80
2023-04-16T17:24:57.832Z,0.60
2023-04-16T17:27:25.213Z,0.70
2023-04-16T17:29:53.303Z,0.80
2023-04-16T17:32:21.174Z,1.10
2023-04-16T17:34:49.124Z,1.93
2023-04-16T17:37:16.748Z,2.93
2023-04-16T17:39:44.064Z,2.70
2023-04-16T17:42:11.377Z,2.73
2023-04-16T17:44:38.722Z,3.60
2023-04-16T17:47:06.164Z,2.50
2023-04-16T17:49:33.662Z,1.23
2023-04-16T17:52:01.083Z,0.83
2023-04-16T17:54:28.673Z,0.80
2023-04-16T17:56:56.248Z,0.70
2023-04-16T17:59:23.461Z,0.90
2023-04-16T18:01:50.882Z,1.73
2023-04-16T18:04:19.091Z,2.00
2023-04-16T18:06:47.045Z,2.53
2023-04-16T18:09:14.721Z,2.70
2023-04-16T18:11:42.101Z,2.87
2023-04-16T18:14:11.822Z,4.20
2023-04-16T18:16:39.491Z,2.73
2023-04-16T18:19:06.868Z,2.70
2023-04-16T18:21:36.137Z,3.33
2023-04-16T18:24:03.805Z,1.17
2023-04-16T18:26:35.648Z,0.90
2023-04-16T18:29:04.607Z,1.17
2023-04-16T18:31:32.259Z,1.40
2023-04-16T18:34:00.473Z,0.70
2023-04-16T18:36:28.141Z,0.80
2023-04-16T18:39:02.096Z,0.70
2023-04-16T18:41:31.190Z,0.70
2023-04-16T18:43:59.956Z,2.00
2023-04-16T18:46:27.895Z,0.80
2023-04-16T18:48:55.513Z,0.80
2023-04-16T18:51:22.733Z,1.40
2023-04-16T18:53:50.082Z,1.30
2023-04-16T18:56:17.459Z,2.80
2023-04-16T18:58:44.754Z,2.70
2023-04-16T19:01:14.332Z,2.60
2023-04-16T19:03:42.121Z,2.80
2023-04-16T19:06:09.827Z,3.37
2023-04-16T19:08:37.120Z,1.53
2023-04-16T19:11:04.372Z,1.47
2023-04-16T19:13:32.703Z,1.10
2023-04-16T19:16:01.934Z,0.80
2023-04-16T19:18:29.506Z,0.57
2023-04-16T19:21:01.130Z,1.00
2023-04-16T19:23:30.088Z,0.80
2023-04-16T19:25:57.766Z,0.90
2023-04-16T19:28:25.825Z,0.70
2023-04-16T19:30:54.366Z,1.00
2023-04-16T19:33:21.724Z,0.70
2023-04-16T19:35:49.340Z,1.43
2023-04-16T19:38:16.726Z,2.80
2023-04-16T19:40:48.475Z,3.10
2023-04-16T19:43:16.028Z,2.60
2023-04-16T19:45:44.702Z,2.53
2023-04-16T19:48:13.679Z,3.00
2023-04-16T19:50:42.203Z,3.53
2023-04-16T19:53:09.906Z,3.13
2023-04-16T19:55:39.315Z,3.07
2023-04-16T19:58:06.771Z,2.03
2023-04-16T20:00:41.227Z,1.20
2023-04-16T20:03:08.727Z,2.90
2023-04-16T20:05:36.598Z,1.87
2023-04-16T20:08:04.022Z,1.00
2023-04-16T20:10:31.912Z,0.87
2023-04-16T20:12:59.742Z,0.90
2023-04-16T20:15:27.688Z,0.97
2023-04-16T20:17:56.462Z,0.90
2023-04-16T20:20:30.147Z,0.80
2023-04-16T20:22:58.764Z,0.70
2023-04-16T20:25:26.606Z,0.80
2023-04-16T20:27:53.962Z,0.97
2023-04-16T20:30:22.961Z,2.13
2023-04-16T20:32:50.589Z,1.00
2023-04-16T20:35:17.993Z,2.03
2023-04-16T20:37:45.266Z,2.43
2023-04-16T20:40:14.268Z,2.20
2023-04-16T20:42:41.703Z,3.43
2023-04-16T20:45:10.024Z,2.60
2023-04-16T20:47:37.296Z,2.17
2023-04-16T20:50:04.932Z,2.00
2023-04-16T20:52:32.922Z,0.97
2023-04-16T20:55:00.578Z,1.83
2023-04-16T20:57:30.195Z,0.70
2023-04-16T20:59:59.012Z,0.90
2023-04-16T21:02:28.677Z,0.60
2023-04-16T21:04:56.407Z,0.97
2023-04-16T21:07:24.108Z,0.70
2023-04-16T21:09:51.556Z,0.90
2023-04-16T21:12:18.995Z,1.83
2023-04-16T21:14:46.617Z,2.30
2023-04-16T21:17:13.852Z,2.30
2023-04-16T21:19:41.426Z,4.23
2023-04-16T21:22:08.709Z,2.93
2023-04-16T21:24:36.053Z,1.70
2023-04-16T21:27:03.642Z,1.27
2023-04-16T21:29:31.052Z,0.90
2023-04-16T21:31:58.955Z,1.00
2023-04-16T21:34:26.602Z,0.73
2023-04-16T21:36:54.111Z,1.67
2023-04-16T21:39:22.096Z,0.80
2023-04-16T21:41:49.449Z,1.53
2023-04-16T21:44:16.893Z,2.70
2023-04-16T21:46:44.528Z,2.63
2023-04-16T21:49:12.055Z,2.57
2023-04-16T21:51:40.711Z,2.40
2023-04-16T21:54:08.026Z,2.47
2023-04-16T21:56:35.500Z,2.47
2023-04-16T21:59:02.771Z,1.60
2023-04-16T22:01:30.418Z,0.63
2023-04-16T22:03:58.233Z,1.07
2023-04-16T22:06:27.610Z,0.70
2023-04-16T22:08:54.980Z,1.13
2023-04-16T22:11:22.937Z,1.17
2023-04-16T22:13:50.583Z,1.30
2023-04-16T22:16:18.130Z,2.30
2023-04-16T22:18:46.747Z,2.57
2023-04-16T22:21:14.112Z,2.20
2023-04-16T22:23:41.535Z,2.83
2023-04-16T22:26:09.369Z,2.90
2023-04-16T22:28:36.787Z,1.73
2023-04-16T22:31:04.183Z,1.17
2023-04-16T22:33:31.699Z,0.77
2023-04-16T22:36:01.260Z,1.33
2023-04-16T22:38:29.167Z,0.63
2023-04-16T22:40:56.697Z,1.20
2023-04-16T22:43:24.084Z,0.97
2023-04-16T22:46:02.677Z,0.87
2023-04-16T22:48:30.441Z,0.80
2023-04-16T22:50:58.456Z,1.10
2023-04-16T22:53:26.180Z,0.70
2023-04-16T23:07:29.394Z,0.70
2023-04-16T23:09:59.185Z,0.70
2023-04-16T23:12:27.761Z,1.17
2023-04-16T23:14:55.189Z,0.70
2023-04-16T23:17:22.555Z,0.60
2023-04-16T23:19:49.973Z,1.33
2023-04-16T23:22:17.442Z,3.13
2023-04-16T23:24:45.266Z,2.83
2023-04-16T23:27:12.747Z,2.70
2023-04-16T23:29:40.165Z,3.73
2023-04-16T23:32:07.753Z,1.43
2023-04-16T23:34:35.211Z,1.90
2023-04-16T23:37:02.854Z,1.60
2023-04-16T23:39:31.099Z,0.73
2023-04-16T23:42:00.732Z,1.20
2023-04-16T23:44:28.780Z,0.70
2023-04-16T23:46:56.539Z,1.00
2023-04-16T23:49:24.061Z,0.60
2023-04-16T23:51:51.660Z,1.00
2023-04-16T23:54:19.193Z,2.30
2023-04-16T23:56:46.872Z,2.70
2023-04-16T23:59:14.742Z,2.60
